sensor_id;sensor_type;location;lat;lon;timestamp;temperature;humidity
14142;DHT22;7151;52.246;4.820;2023-11-19T00:02:25;16.10;97.70
14142;DHT22;7151;52.246;4.820;2023-11-19T00:04:50;16.10;97.70
14142;DHT22;7151;52.246;4.820;2023-11-19T00:07:16;16.10;97.60
14142;DHT22;7151;52.246;4.820;2023-11-19T00:09:42;16.10;97.60
14142;DHT22;7151;52.246;4.820;2023-11-19T00:12:09;16.10;97.60
14142;DHT22;7151;52.246;4.820;2023-11-19T00:14:34;16.10;97.60
14142;DHT22;7151;52.246;4.820;2023-11-19T00:17:00;16.10;97.60
14142;DHT22;7151;52.246;4.820;2023-11-19T00:19:26;16.10;97.60
14142;DHT22;7151;52.246;4.820;2023-11-19T00:21:52;16.10;97.60
14142;DHT22;7151;52.246;4.820;2023-11-19T00:24:18;16.10;97.50
14142;DHT22;7151;52.246;4.820;2023-11-19T00:26:44;16.10;97.50
14142;DHT22;7151;52.246;4.820;2023-11-19T00:29:09;16.10;97.50
14142;DHT22;7151;52.246;4.820;2023-11-19T00:31:35;16.10;97.40
14142;DHT22;7151;52.246;4.820;2023-11-19T00:34:01;16.10;97.40
14142;DHT22;7151;52.246;4.820;2023-11-19T00:36:31;16.10;97.40
14142;DHT22;7151;52.246;4.820;2023-11-19T00:38:57;16.10;97.40
14142;DHT22;7151;52.246;4.820;2023-11-19T00:41:23;16.10;97.40
14142;DHT22;7151;52.246;4.820;2023-11-19T00:43:49;16.10;97.40
14142;DHT22;7151;52.246;4.820;2023-11-19T00:46:14;16.10;97.40
14142;DHT22;7151;52.246;4.820;2023-11-19T00:48:40;16.10;97.30
14142;DHT22;7151;52.246;4.820;2023-11-19T00:51:06;16.10;97.30
14142;DHT22;7151;52.246;4.820;2023-11-19T00:53:32;16.10;97.30
14142;DHT22;7151;52.246;4.820;2023-11-19T00:55:59;16.10;97.30
14142;DHT22;7151;52.246;4.820;2023-11-19T00:58:25;16.10;97.30
14142;DHT22;7151;52.246;4.820;2023-11-19T01:00:50;16.10;97.30
14142;DHT22;7151;52.246;4.820;2023-11-19T01:03:16;16.10;97.30
14142;DHT22;7151;52.246;4.820;2023-11-19T01:05:42;16.00;97.20
14142;DHT22;7151;52.246;4.820;2023-11-19T01:08:08;16.00;97.20
14142;DHT22;7151;52.246;4.820;2023-11-19T01:10:37;16.00;97.20
14142;DHT22;7151;52.246;4.820;2023-11-19T01:13:02;16.00;97.20
14142;DHT22;7151;52.246;4.820;2023-11-19T01:15:31;16.00;97.20
14142;DHT22;7151;52.246;4.820;2023-11-19T01:17:57;16.00;97.20
14142;DHT22;7151;52.246;4.820;2023-11-19T01:20:22;16.00;97.20
14142;DHT22;7151;52.246;4.820;2023-11-19T01:22:49;16.00;97.20
14142;DHT22;7151;52.246;4.820;2023-11-19T01:25:15;16.00;97.20
14142;DHT22;7151;52.246;4.820;2023-11-19T01:27:41;16.00;97.20
14142;DHT22;7151;52.246;4.820;2023-11-19T01:30:07;16.00;97.20
14142;DHT22;7151;52.246;4.820;2023-11-19T01:32:35;16.00;97.20
14142;DHT22;7151;52.246;4.820;2023-11-19T01:35:03;16.00;97.20
14142;DHT22;7151;52.246;4.820;2023-11-19T01:37:29;16.00;97.20
14142;DHT22;7151;52.246;4.820;2023-11-19T01:39:55;16.00;97.20
14142;DHT22;7151;52.246;4.820;2023-11-19T01:42:20;16.00;97.20
14142;DHT22;7151;52.246;4.820;2023-11-19T01:44:59;16.00;97.20
14142;DHT22;7151;52.246;4.820;2023-11-19T01:47:25;16.00;97.10
14142;DHT22;7151;52.246;4.820;2023-11-19T01:49:52;16.00;97.10
14142;DHT22;7151;52.246;4.820;2023-11-19T01:52:18;16.00;97.10
14142;DHT22;7151;52.246;4.820;2023-11-19T01:54:45;16.00;97.10
14142;DHT22;7151;52.246;4.820;2023-11-19T01:57:12;16.00;97.10
14142;DHT22;7151;52.246;4.820;2023-11-19T01:59:38;16.00;97.00
14142;DHT22;7151;52.246;4.820;2023-11-19T02:02:05;16.00;97.00
14142;DHT22;7151;52.246;4.820;2023-11-19T02:04:31;16.00;97.00
14142;DHT22;7151;52.246;4.820;2023-11-19T02:06:58;16.00;96.90
14142;DHT22;7151;52.246;4.820;2023-11-19T02:09:24;16.00;96.90
14142;DHT22;7151;52.246;4.820;2023-11-19T02:11:50;15.90;96.90
14142;DHT22;7151;52.246;4.820;2023-11-19T02:14:17;15.90;96.80
14142;DHT22;7151;52.246;4.820;2023-11-19T02:16:43;15.90;96.80
14142;DHT22;7151;52.246;4.820;2023-11-19T02:19:08;15.90;96.80
14142;DHT22;7151;52.246;4.820;2023-11-19T02:21:37;15.90;96.80
14142;DHT22;7151;52.246;4.820;2023-11-19T02:24:08;15.90;96.70
14142;DHT22;7151;52.246;4.820;2023-11-19T02:29:26;15.90;96.60
14142;DHT22;7151;52.246;4.820;2023-11-19T02:31:51;15.90;96.60
14142;DHT22;7151;52.246;4.820;2023-11-19T02:34:17;15.90;96.60
14142;DHT22;7151;52.246;4.820;2023-11-19T02:36:43;15.80;96.60
14142;DHT22;7151;52.246;4.820;2023-11-19T02:39:08;15.80;96.60
14142;DHT22;7151;52.246;4.820;2023-11-19T02:41:37;15.80;96.50
14142;DHT22;7151;52.246;4.820;2023-11-19T02:44:06;15.80;96.50
14142;DHT22;7151;52.246;4.820;2023-11-19T02:46:31;15.80;96.50
14142;DHT22;7151;52.246;4.820;2023-11-19T02:48:57;15.80;96.50
14142;DHT22;7151;52.246;4.820;2023-11-19T02:51:23;15.80;96.50
14142;DHT22;7151;52.246;4.820;2023-11-19T02:53:49;15.80;96.40
14142;DHT22;7151;52.246;4.820;2023-11-19T02:56:14;15.80;96.40
14142;DHT22;7151;52.246;4.820;2023-11-19T02:58:51;15.80;96.30
14142;DHT22;7151;52.246;4.820;2023-11-19T03:01:26;15.80;96.30
14142;DHT22;7151;52.246;4.820;2023-11-19T03:03:56;15.80;96.30
14142;DHT22;7151;52.246;4.820;2023-11-19T03:06:23;15.80;96.20
14142;DHT22;7151;52.246;4.820;2023-11-19T03:08:49;15.80;96.30
14142;DHT22;7151;52.246;4.820;2023-11-19T03:11:15;15.80;96.20
14142;DHT22;7151;52.246;4.820;2023-11-19T03:13:41;15.70;96.10
14142;DHT22;7151;52.246;4.820;2023-11-19T03:16:07;15.70;96.10
14142;DHT22;7151;52.246;4.820;2023-11-19T03:18:33;15.70;96.00
14142;DHT22;7151;52.246;4.820;2023-11-19T03:20:58;15.70;96.00
14142;DHT22;7151;52.246;4.820;2023-11-19T03:23:24;15.70;96.00
14142;DHT22;7151;52.246;4.820;2023-11-19T03:25:53;15.70;96.00
14142;DHT22;7151;52.246;4.820;2023-11-19T03:28:19;15.70;96.00
14142;DHT22;7151;52.246;4.820;2023-11-19T03:30:45;15.70;96.00
14142;DHT22;7151;52.246;4.820;2023-11-19T03:33:10;15.70;95.90
14142;DHT22;7151;52.246;4.820;2023-11-19T03:35:36;15.60;95.90
14142;DHT22;7151;52.246;4.820;2023-11-19T03:38:01;15.60;95.80
14142;DHT22;7151;52.246;4.820;2023-11-19T03:40:28;15.60;95.80
14142;DHT22;7151;52.246;4.820;2023-11-19T03:42:56;15.60;95.80
14142;DHT22;7151;52.246;4.820;2023-11-19T03:45:22;15.60;95.80
14142;DHT22;7151;52.246;4.820;2023-11-19T03:47:47;15.60;95.80
14142;DHT22;7151;52.246;4.820;2023-11-19T03:50:15;15.60;95.70
14142;DHT22;7151;52.246;4.820;2023-11-19T03:52:41;15.60;95.70
14142;DHT22;7151;52.246;4.820;2023-11-19T03:55:07;15.60;95.60
14142;DHT22;7151;52.246;4.820;2023-11-19T03:57:34;15.60;95.60
14142;DHT22;7151;52.246;4.820;2023-11-19T04:00:00;15.60;95.60
14142;DHT22;7151;52.246;4.820;2023-11-19T04:02:27;15.60;95.60
14142;DHT22;7151;52.246;4.820;2023-11-19T04:04:54;15.60;95.90
14142;DHT22;7151;52.246;4.820;2023-11-19T04:07:20;15.60;95.50
14142;DHT22;7151;52.246;4.820;2023-11-19T04:09:46;15.60;95.50
14142;DHT22;7151;52.246;4.820;2023-11-19T04:12:12;15.50;95.50
14142;DHT22;7151;52.246;4.820;2023-11-19T04:14:37;15.50;95.50
14142;DHT22;7151;52.246;4.820;2023-11-19T04:17:03;15.50;95.50
14142;DHT22;7151;52.246;4.820;2023-11-19T04:19:29;15.50;95.40
14142;DHT22;7151;52.246;4.820;2023-11-19T04:21:54;15.50;95.40
14142;DHT22;7151;52.246;4.820;2023-11-19T04:24:20;15.50;95.40
14142;DHT22;7151;52.246;4.820;2023-11-19T04:26:46;15.50;95.40
14142;DHT22;7151;52.246;4.820;2023-11-19T04:29:12;15.50;95.30
14142;DHT22;7151;52.246;4.820;2023-11-19T04:31:39;15.50;95.30
14142;DHT22;7151;52.246;4.820;2023-11-19T04:34:05;15.50;95.30
14142;DHT22;7151;52.246;4.820;2023-11-19T04:36:34;15.50;95.20
14142;DHT22;7151;52.246;4.820;2023-11-19T04:39:00;15.50;95.20
14142;DHT22;7151;52.246;4.820;2023-11-19T04:41:27;15.50;95.20
14142;DHT22;7151;52.246;4.820;2023-11-19T04:43:55;15.50;95.20
14142;DHT22;7151;52.246;4.820;2023-11-19T04:46:21;15.50;95.20
14142;DHT22;7151;52.246;4.820;2023-11-19T04:48:47;15.50;95.10
14142;DHT22;7151;52.246;4.820;2023-11-19T04:51:12;15.50;95.10
14142;DHT22;7151;52.246;4.820;2023-11-19T04:53:38;15.50;95.10
14142;DHT22;7151;52.246;4.820;2023-11-19T04:56:10;15.50;95.00
14142;DHT22;7151;52.246;4.820;2023-11-19T04:58:36;15.50;95.00
14142;DHT22;7151;52.246;4.820;2023-11-19T05:01:03;15.50;94.90
14142;DHT22;7151;52.246;4.820;2023-11-19T05:03:30;15.50;94.90
14142;DHT22;7151;52.246;4.820;2023-11-19T05:05:55;15.50;94.80
14142;DHT22;7151;52.246;4.820;2023-11-19T05:08:21;15.50;94.70
14142;DHT22;7151;52.246;4.820;2023-11-19T05:10:46;15.50;94.70
14142;DHT22;7151;52.246;4.820;2023-11-19T05:13:12;15.50;94.70
14142;DHT22;7151;52.246;4.820;2023-11-19T05:15:38;15.50;94.70
14142;DHT22;7151;52.246;4.820;2023-11-19T05:18:03;15.50;94.60
14142;DHT22;7151;52.246;4.820;2023-11-19T05:20:30;15.50;94.60
14142;DHT22;7151;52.246;4.820;2023-11-19T05:22:55;15.50;94.60
14142;DHT22;7151;52.246;4.820;2023-11-19T05:25:22;15.50;94.50
14142;DHT22;7151;52.246;4.820;2023-11-19T05:27:47;15.50;94.50
14142;DHT22;7151;52.246;4.820;2023-11-19T05:30:13;15.50;94.40
14142;DHT22;7151;52.246;4.820;2023-11-19T05:32:38;15.40;94.40
14142;DHT22;7151;52.246;4.820;2023-11-19T05:35:04;15.50;94.40
14142;DHT22;7151;52.246;4.820;2023-11-19T05:37:30;15.50;94.30
14142;DHT22;7151;52.246;4.820;2023-11-19T05:39:56;15.50;94.30
14142;DHT22;7151;52.246;4.820;2023-11-19T05:42:21;15.50;94.20
14142;DHT22;7151;52.246;4.820;2023-11-19T05:44:47;15.50;94.20
14142;DHT22;7151;52.246;4.820;2023-11-19T05:47:13;15.50;94.20
14142;DHT22;7151;52.246;4.820;2023-11-19T05:49:38;15.50;94.20
14142;DHT22;7151;52.246;4.820;2023-11-19T05:52:04;15.50;94.20
14142;DHT22;7151;52.246;4.820;2023-11-19T05:54:33;15.40;94.10
14142;DHT22;7151;52.246;4.820;2023-11-19T05:57:04;15.40;94.10
14142;DHT22;7151;52.246;4.820;2023-11-19T05:59:29;15.40;94.10
14142;DHT22;7151;52.246;4.820;2023-11-19T06:01:57;15.40;94.10
14142;DHT22;7151;52.246;4.820;2023-11-19T06:04:23;15.40;94.10
14142;DHT22;7151;52.246;4.820;2023-11-19T06:06:48;15.40;94.10
14142;DHT22;7151;52.246;4.820;2023-11-19T06:09:14;15.40;94.00
14142;DHT22;7151;52.246;4.820;2023-11-19T06:11:40;15.40;94.00
14142;DHT22;7151;52.246;4.820;2023-11-19T06:14:06;15.40;94.00
14142;DHT22;7151;52.246;4.820;2023-11-19T06:16:32;15.40;94.00
14142;DHT22;7151;52.246;4.820;2023-11-19T06:18:58;15.40;93.90
14142;DHT22;7151;52.246;4.820;2023-11-19T06:21:24;15.40;94.00
14142;DHT22;7151;52.246;4.820;2023-11-19T06:23:50;15.40;94.00
14142;DHT22;7151;52.246;4.820;2023-11-19T06:26:17;15.40;93.90
14142;DHT22;7151;52.246;4.820;2023-11-19T06:28:43;15.40;93.90
14142;DHT22;7151;52.246;4.820;2023-11-19T06:31:09;15.40;93.90
14142;DHT22;7151;52.246;4.820;2023-11-19T06:33:35;15.40;93.90
14142;DHT22;7151;52.246;4.820;2023-11-19T06:36:00;15.40;93.90
14142;DHT22;7151;52.246;4.820;2023-11-19T06:38:26;15.40;93.90
14142;DHT22;7151;52.246;4.820;2023-11-19T06:40:52;15.40;93.90
14142;DHT22;7151;52.246;4.820;2023-11-19T06:43:17;15.40;93.90
14142;DHT22;7151;52.246;4.820;2023-11-19T06:45:43;15.40;93.90
14142;DHT22;7151;52.246;4.820;2023-11-19T06:48:08;15.40;93.90
14142;DHT22;7151;52.246;4.820;2023-11-19T06:50:34;15.40;93.80
14142;DHT22;7151;52.246;4.820;2023-11-19T06:53:00;15.40;93.80
14142;DHT22;7151;52.246;4.820;2023-11-19T06:55:26;15.30;93.80
14142;DHT22;7151;52.246;4.820;2023-11-19T06:57:52;15.30;93.80
14142;DHT22;7151;52.246;4.820;2023-11-19T07:00:18;15.40;93.90
14142;DHT22;7151;52.246;4.820;2023-11-19T07:02:44;15.40;93.90
14142;DHT22;7151;52.246;4.820;2023-11-19T07:05:10;15.30;93.80
14142;DHT22;7151;52.246;4.820;2023-11-19T07:07:35;15.30;93.80
14142;DHT22;7151;52.246;4.820;2023-11-19T07:10:01;15.30;93.80
14142;DHT22;7151;52.246;4.820;2023-11-19T07:12:28;15.40;93.80
14142;DHT22;7151;52.246;4.820;2023-11-19T07:14:54;15.40;93.80
14142;DHT22;7151;52.246;4.820;2023-11-19T07:17:20;15.40;93.80
14142;DHT22;7151;52.246;4.820;2023-11-19T07:19:47;15.40;93.90
14142;DHT22;7151;52.246;4.820;2023-11-19T07:22:12;15.40;93.90
14142;DHT22;7151;52.246;4.820;2023-11-19T07:24:41;15.40;93.80
14142;DHT22;7151;52.246;4.820;2023-11-19T07:27:07;15.40;93.80
14142;DHT22;7151;52.246;4.820;2023-11-19T07:29:37;15.40;93.80
14142;DHT22;7151;52.246;4.820;2023-11-19T07:32:03;15.40;93.80
14142;DHT22;7151;52.246;4.820;2023-11-19T07:34:28;15.40;93.80
14142;DHT22;7151;52.246;4.820;2023-11-19T07:36:54;15.40;93.80
14142;DHT22;7151;52.246;4.820;2023-11-19T07:39:22;15.40;93.80
14142;DHT22;7151;52.246;4.820;2023-11-19T07:41:48;15.40;93.80
14142;DHT22;7151;52.246;4.820;2023-11-19T07:44:14;15.50;93.80
14142;DHT22;7151;52.246;4.820;2023-11-19T07:46:40;15.50;93.80
14142;DHT22;7151;52.246;4.820;2023-11-19T07:49:07;15.50;93.70
14142;DHT22;7151;52.246;4.820;2023-11-19T07:51:33;15.50;93.70
14142;DHT22;7151;52.246;4.820;2023-11-19T07:53:58;15.50;93.40
14142;DHT22;7151;52.246;4.820;2023-11-19T07:56:24;15.50;93.60
14142;DHT22;7151;52.246;4.820;2023-11-19T07:58:50;15.50;93.60
14142;DHT22;7151;52.246;4.820;2023-11-19T08:01:15;15.50;93.60
14142;DHT22;7151;52.246;4.820;2023-11-19T08:03:41;15.50;93.60
14142;DHT22;7151;52.246;4.820;2023-11-19T08:06:07;15.50;93.60
14142;DHT22;7151;52.246;4.820;2023-11-19T08:08:32;15.50;93.90
14142;DHT22;7151;52.246;4.820;2023-11-19T08:11:00;15.50;93.60
14142;DHT22;7151;52.246;4.820;2023-11-19T08:13:25;15.50;93.60
14142;DHT22;7151;52.246;4.820;2023-11-19T08:15:52;15.50;93.50
14142;DHT22;7151;52.246;4.820;2023-11-19T08:18:17;15.50;93.50
14142;DHT22;7151;52.246;4.820;2023-11-19T08:20:44;15.50;93.50
14142;DHT22;7151;52.246;4.820;2023-11-19T08:23:10;15.50;93.50
14142;DHT22;7151;52.246;4.820;2023-11-19T08:25:36;15.50;93.60
14142;DHT22;7151;52.246;4.820;2023-11-19T08:28:01;15.50;93.60
14142;DHT22;7151;52.246;4.820;2023-11-19T08:30:29;15.50;93.50
14142;DHT22;7151;52.246;4.820;2023-11-19T08:32:55;15.60;93.60
14142;DHT22;7151;52.246;4.820;2023-11-19T08:35:20;15.60;93.50
14142;DHT22;7151;52.246;4.820;2023-11-19T08:37:46;15.60;93.50
14142;DHT22;7151;52.246;4.820;2023-11-19T08:40:12;15.60;93.50
14142;DHT22;7151;52.246;4.820;2023-11-19T08:42:40;15.60;93.40
14142;DHT22;7151;52.246;4.820;2023-11-19T08:45:06;15.60;93.70
14142;DHT22;7151;52.246;4.820;2023-11-19T08:47:32;15.60;93.40
14142;DHT22;7151;52.246;4.820;2023-11-19T08:49:58;15.60;93.40
14142;DHT22;7151;52.246;4.820;2023-11-19T08:52:23;15.60;93.40
14142;DHT22;7151;52.246;4.820;2023-11-19T08:54:49;15.70;93.40
14142;DHT22;7151;52.246;4.820;2023-11-19T08:57:15;15.70;93.40
14142;DHT22;7151;52.246;4.820;2023-11-19T08:59:40;15.70;93.40
14142;DHT22;7151;52.246;4.820;2023-11-19T09:02:06;15.70;93.40
14142;DHT22;7151;52.246;4.820;2023-11-19T09:04:32;15.70;93.40
14142;DHT22;7151;52.246;4.820;2023-11-19T09:06:58;15.70;93.40
14142;DHT22;7151;52.246;4.820;2023-11-19T09:09:24;15.70;93.50
14142;DHT22;7151;52.246;4.820;2023-11-19T09:11:50;15.70;93.40
14142;DHT22;7151;52.246;4.820;2023-11-19T09:14:16;15.70;93.40
14142;DHT22;7151;52.246;4.820;2023-11-19T09:16:43;15.70;93.40
14142;DHT22;7151;52.246;4.820;2023-11-19T09:19:09;15.80;93.40
14142;DHT22;7151;52.246;4.820;2023-11-19T09:21:34;15.80;93.40
14142;DHT22;7151;52.246;4.820;2023-11-19T09:24:04;15.80;93.40
14142;DHT22;7151;52.246;4.820;2023-11-19T09:26:29;15.80;93.40
14142;DHT22;7151;52.246;4.820;2023-11-19T09:28:56;15.80;93.40
14142;DHT22;7151;52.246;4.820;2023-11-19T09:31:21;15.80;93.40
14142;DHT22;7151;52.246;4.820;2023-11-19T09:33:47;15.80;93.40
14142;DHT22;7151;52.246;4.820;2023-11-19T09:36:13;15.90;93.40
14142;DHT22;7151;52.246;4.820;2023-11-19T09:38:45;15.90;93.30
14142;DHT22;7151;52.246;4.820;2023-11-19T09:41:11;15.90;93.30
14142;DHT22;7151;52.246;4.820;2023-11-19T09:43:40;15.90;93.30
14142;DHT22;7151;52.246;4.820;2023-11-19T09:46:09;15.90;93.30
14142;DHT22;7151;52.246;4.820;2023-11-19T09:48:37;15.90;93.30
14142;DHT22;7151;52.246;4.820;2023-11-19T09:51:05;15.90;93.30
14142;DHT22;7151;52.246;4.820;2023-11-19T09:53:31;15.90;93.30
14142;DHT22;7151;52.246;4.820;2023-11-19T09:55:59;15.90;93.30
14142;DHT22;7151;52.246;4.820;2023-11-19T09:58:26;15.90;93.20
14142;DHT22;7151;52.246;4.820;2023-11-19T10:00:51;15.90;93.20
14142;DHT22;7151;52.246;4.820;2023-11-19T10:03:17;16.00;93.20
14142;DHT22;7151;52.246;4.820;2023-11-19T10:05:43;16.00;93.20
14142;DHT22;7151;52.246;4.820;2023-11-19T10:08:09;16.00;93.20
14142;DHT22;7151;52.246;4.820;2023-11-19T10:10:36;16.00;93.20
14142;DHT22;7151;52.246;4.820;2023-11-19T10:13:03;16.00;93.20
14142;DHT22;7151;52.246;4.820;2023-11-19T10:15:33;16.00;93.10
14142;DHT22;7151;52.246;4.820;2023-11-19T10:18:00;16.00;93.10
14142;DHT22;7151;52.246;4.820;2023-11-19T10:20:26;16.00;93.10
14142;DHT22;7151;52.246;4.820;2023-11-19T10:22:58;16.00;93.10
14142;DHT22;7151;52.246;4.820;2023-11-19T10:25:28;16.10;93.00
14142;DHT22;7151;52.246;4.820;2023-11-19T10:27:54;16.00;92.90
14142;DHT22;7151;52.246;4.820;2023-11-19T10:30:28;16.10;93.00
14142;DHT22;7151;52.246;4.820;2023-11-19T10:35:50;16.00;92.90
14142;DHT22;7151;52.246;4.820;2023-11-19T10:38:17;16.10;93.00
14142;DHT22;7151;52.246;4.820;2023-11-19T10:40:43;16.10;93.10
14142;DHT22;7151;52.246;4.820;2023-11-19T10:43:09;16.10;93.10
14142;DHT22;7151;52.246;4.820;2023-11-19T10:45:36;16.10;93.10
14142;DHT22;7151;52.246;4.820;2023-11-19T10:48:03;16.20;93.10
14142;DHT22;7151;52.246;4.820;2023-11-19T10:50:39;16.20;93.00
14142;DHT22;7151;52.246;4.820;2023-11-19T10:53:06;16.20;92.90
14142;DHT22;7151;52.246;4.820;2023-11-19T10:55:36;16.20;92.90
14142;DHT22;7151;52.246;4.820;2023-11-19T10:58:09;16.30;92.90
14142;DHT22;7151;52.246;4.820;2023-11-19T11:00:57;16.30;92.80
14142;DHT22;7151;52.246;4.820;2023-11-19T11:03:26;16.30;92.70
14142;DHT22;7151;52.246;4.820;2023-11-19T11:05:55;16.30;92.70
14142;DHT22;7151;52.246;4.820;2023-11-19T11:08:21;16.30;92.60
14142;DHT22;7151;52.246;4.820;2023-11-19T11:13:17;16.40;92.60
14142;DHT22;7151;52.246;4.820;2023-11-19T11:15:45;16.40;92.50
14142;DHT22;7151;52.246;4.820;2023-11-19T11:18:12;16.40;92.50
14142;DHT22;7151;52.246;4.820;2023-11-19T11:20:39;16.50;92.50
14142;DHT22;7151;52.246;4.820;2023-11-19T11:39:36;16.60;92.10
14142;DHT22;7151;52.246;4.820;2023-11-19T11:50:12;16.60;91.90
14142;DHT22;7151;52.246;4.820;2023-11-19T11:55:34;16.60;91.90
14142;DHT22;7151;52.246;4.820;2023-11-19T11:58:00;16.60;91.90
14142;DHT22;7151;52.246;4.820;2023-11-19T12:00:40;16.70;92.00
14142;DHT22;7151;52.246;4.820;2023-11-19T12:03:07;16.70;91.90
14142;DHT22;7151;52.246;4.820;2023-11-19T12:05:38;16.70;91.90
14142;DHT22;7151;52.246;4.820;2023-11-19T12:08:06;16.80;91.80
14142;DHT22;7151;52.246;4.820;2023-11-19T12:10:47;16.80;91.80
14142;DHT22;7151;52.246;4.820;2023-11-19T12:13:14;16.80;91.70
14142;DHT22;7151;52.246;4.820;2023-11-19T12:20:54;16.80;91.60
14142;DHT22;7151;52.246;4.820;2023-11-19T12:23:19;16.80;91.50
14142;DHT22;7151;52.246;4.820;2023-11-19T12:25:45;16.80;91.50
14142;DHT22;7151;52.246;4.820;2023-11-19T12:28:15;16.80;91.50
14142;DHT22;7151;52.246;4.820;2023-11-19T12:30:45;16.80;91.40
14142;DHT22;7151;52.246;4.820;2023-11-19T12:33:12;16.80;91.40
14142;DHT22;7151;52.246;4.820;2023-11-19T12:35:41;16.80;91.40
14142;DHT22;7151;52.246;4.820;2023-11-19T12:38:08;16.80;91.30
14142;DHT22;7151;52.246;4.820;2023-11-19T12:40:34;16.80;91.20
14142;DHT22;7151;52.246;4.820;2023-11-19T12:43:00;16.80;91.20
14142;DHT22;7151;52.246;4.820;2023-11-19T12:45:35;16.80;91.20
14142;DHT22;7151;52.246;4.820;2023-11-19T12:48:08;16.80;91.20
14142;DHT22;7151;52.246;4.820;2023-11-19T12:50:54;16.80;91.20
14142;DHT22;7151;52.246;4.820;2023-11-19T12:53:22;16.80;91.20
14142;DHT22;7151;52.246;4.820;2023-11-19T12:55:48;16.80;91.20
14142;DHT22;7151;52.246;4.820;2023-11-19T13:01:05;16.70;91.20
14142;DHT22;7151;52.246;4.820;2023-11-19T13:03:38;16.70;91.20
14142;DHT22;7151;52.246;4.820;2023-11-19T13:06:11;16.70;91.50
14142;DHT22;7151;52.246;4.820;2023-11-19T13:08:39;16.70;91.20
14142;DHT22;7151;52.246;4.820;2023-11-19T13:11:05;16.70;91.20
14142;DHT22;7151;52.246;4.820;2023-11-19T13:13:31;16.70;91.20
14142;DHT22;7151;52.246;4.820;2023-11-19T13:16:04;16.70;91.50
14142;DHT22;7151;52.246;4.820;2023-11-19T13:18:34;16.70;91.20
14142;DHT22;7151;52.246;4.820;2023-11-19T13:21:00;16.70;91.20
14142;DHT22;7151;52.246;4.820;2023-11-19T13:23:25;16.70;91.20
14142;DHT22;7151;52.246;4.820;2023-11-19T13:25:51;16.70;91.20
14142;DHT22;7151;52.246;4.820;2023-11-19T13:28:17;16.70;91.60
14142;DHT22;7151;52.246;4.820;2023-11-19T13:30:43;16.70;91.30
14142;DHT22;7151;52.246;4.820;2023-11-19T13:33:08;16.70;91.70
14142;DHT22;7151;52.246;4.820;2023-11-19T13:35:37;16.70;91.50
14142;DHT22;7151;52.246;4.820;2023-11-19T13:38:06;16.70;91.50
14142;DHT22;7151;52.246;4.820;2023-11-19T13:40:31;16.70;91.60
14142;DHT22;7151;52.246;4.820;2023-11-19T13:42:57;16.70;91.60
14142;DHT22;7151;52.246;4.820;2023-11-19T13:45:23;16.70;91.60
14142;DHT22;7151;52.246;4.820;2023-11-19T13:47:48;16.70;91.60
14142;DHT22;7151;52.246;4.820;2023-11-19T13:50:15;16.60;91.50
14142;DHT22;7151;52.246;4.820;2023-11-19T13:52:43;16.70;91.50
14142;DHT22;7151;52.246;4.820;2023-11-19T13:55:11;16.60;91.40
14142;DHT22;7151;52.246;4.820;2023-11-19T13:57:38;16.60;91.40
14142;DHT22;7151;52.246;4.820;2023-11-19T14:00:06;16.70;91.40
14142;DHT22;7151;52.246;4.820;2023-11-19T14:02:36;16.60;91.40
14142;DHT22;7151;52.246;4.820;2023-11-19T14:05:02;16.70;91.40
14142;DHT22;7151;52.246;4.820;2023-11-19T14:07:28;16.70;91.40
14142;DHT22;7151;52.246;4.820;2023-11-19T14:09:54;16.70;91.30
14142;DHT22;7151;52.246;4.820;2023-11-19T14:12:19;16.70;91.30
14142;DHT22;7151;52.246;4.820;2023-11-19T14:14:45;16.70;91.30
14142;DHT22;7151;52.246;4.820;2023-11-19T14:17:11;16.70;91.30
14142;DHT22;7151;52.246;4.820;2023-11-19T14:19:37;16.70;91.30
14142;DHT22;7151;52.246;4.820;2023-11-19T14:22:04;16.70;91.30
14142;DHT22;7151;52.246;4.820;2023-11-19T14:24:31;16.70;91.30
14142;DHT22;7151;52.246;4.820;2023-11-19T14:26:56;16.70;91.30
14142;DHT22;7151;52.246;4.820;2023-11-19T14:29:24;16.60;91.30
14142;DHT22;7151;52.246;4.820;2023-11-19T14:31:55;16.60;91.40
14142;DHT22;7151;52.246;4.820;2023-11-19T14:34:21;16.60;91.40
14142;DHT22;7151;52.246;4.820;2023-11-19T14:36:46;16.60;91.40
14142;DHT22;7151;52.246;4.820;2023-11-19T14:39:13;16.60;91.40
14142;DHT22;7151;52.246;4.820;2023-11-19T14:41:38;16.60;91.40
14142;DHT22;7151;52.246;4.820;2023-11-19T14:44:05;16.60;91.50
14142;DHT22;7151;52.246;4.820;2023-11-19T14:46:31;16.60;91.50
14142;DHT22;7151;52.246;4.820;2023-11-19T14:48:57;16.60;91.50
14142;DHT22;7151;52.246;4.820;2023-11-19T14:51:22;16.60;91.50
14142;DHT22;7151;52.246;4.820;2023-11-19T14:53:48;16.60;91.40
14142;DHT22;7151;52.246;4.820;2023-11-19T14:56:14;16.60;91.40
14142;DHT22;7151;52.246;4.820;2023-11-19T14:58:40;16.60;91.70
14142;DHT22;7151;52.246;4.820;2023-11-19T15:01:06;16.60;91.40
14142;DHT22;7151;52.246;4.820;2023-11-19T15:03:33;16.60;91.40
14142;DHT22;7151;52.246;4.820;2023-11-19T15:05:59;16.60;91.40
14142;DHT22;7151;52.246;4.820;2023-11-19T15:08:25;16.50;91.40
14142;DHT22;7151;52.246;4.820;2023-11-19T15:10:50;16.60;91.40
14142;DHT22;7151;52.246;4.820;2023-11-19T15:13:16;16.60;91.40
14142;DHT22;7151;52.246;4.820;2023-11-19T15:15:42;16.50;91.30
14142;DHT22;7151;52.246;4.820;2023-11-19T15:18:08;16.50;91.30
14142;DHT22;7151;52.246;4.820;2023-11-19T15:20:35;16.50;91.30
14142;DHT22;7151;52.246;4.820;2023-11-19T15:23:02;16.50;91.30
14142;DHT22;7151;52.246;4.820;2023-11-19T15:25:27;16.50;91.30
14142;DHT22;7151;52.246;4.820;2023-11-19T15:27:53;16.50;91.20
14142;DHT22;7151;52.246;4.820;2023-11-19T15:30:19;16.50;91.20
14142;DHT22;7151;52.246;4.820;2023-11-19T15:32:45;16.50;91.20
14142;DHT22;7151;52.246;4.820;2023-11-19T15:35:11;16.50;91.20
14142;DHT22;7151;52.246;4.820;2023-11-19T15:37:37;16.50;91.40
14142;DHT22;7151;52.246;4.820;2023-11-19T15:40:06;16.50;91.30
14142;DHT22;7151;52.246;4.820;2023-11-19T15:42:36;16.50;91.30
14142;DHT22;7151;52.246;4.820;2023-11-19T15:45:03;16.50;91.30
14142;DHT22;7151;52.246;4.820;2023-11-19T15:47:35;16.50;91.30
14142;DHT22;7151;52.246;4.820;2023-11-19T15:50:01;16.50;91.40
14142;DHT22;7151;52.246;4.820;2023-11-19T15:52:29;16.50;91.40
14142;DHT22;7151;52.246;4.820;2023-11-19T15:54:58;16.50;91.50
14142;DHT22;7151;52.246;4.820;2023-11-19T15:57:24;16.50;91.50
14142;DHT22;7151;52.246;4.820;2023-11-19T15:59:50;16.50;91.50
14142;DHT22;7151;52.246;4.820;2023-11-19T16:02:17;16.40;91.50
14142;DHT22;7151;52.246;4.820;2023-11-19T16:04:43;16.40;91.60
14142;DHT22;7151;52.246;4.820;2023-11-19T16:07:16;16.40;91.60
14142;DHT22;7151;52.246;4.820;2023-11-19T16:09:42;16.40;91.60
14142;DHT22;7151;52.246;4.820;2023-11-19T16:12:08;16.40;91.60
14142;DHT22;7151;52.246;4.820;2023-11-19T16:14:34;16.40;91.70
14142;DHT22;7151;52.246;4.820;2023-11-19T16:17:00;16.40;91.60
14142;DHT22;7151;52.246;4.820;2023-11-19T16:19:26;16.40;91.60
14142;DHT22;7151;52.246;4.820;2023-11-19T16:21:55;16.40;92.00
14142;DHT22;7151;52.246;4.820;2023-11-19T16:24:21;16.40;91.70
14142;DHT22;7151;52.246;4.820;2023-11-19T16:26:46;16.40;91.70